sensor_id;sensor_type;location;lat;lon;timestamp;pressure;altitude;pressure_sealevel;temperature;humidity
62544;BME280;48597;49.030;1.822;2022-11-27T00:01:20;101566.78;;;18.98;47.09
62544;BME280;48597;49.030;1.822;2022-11-27T00:03:46;101557.38;;;18.97;47.13
62544;BME280;48597;49.030;1.822;2022-11-27T00:06:13;101549.63;;;18.98;47.15
62544;BME280;48597;49.030;1.822;2022-11-27T00:08:40;101544.34;;;18.96;46.98
62544;BME280;48597;49.030;1.822;2022-11-27T00:11:14;101541.50;;;18.96;47.13
62544;BME280;48597;49.030;1.822;2022-11-27T00:13:40;101541.50;;;18.96;47.09
62544;BME280;48597;49.030;1.822;2022-11-27T00:16:06;101540.69;;;18.96;47.15
62544;BME280;48597;49.030;1.822;2022-11-27T00:18:31;101544.34;;;18.96;47.13
62544;BME280;48597;49.030;1.822;2022-11-27T00:21:04;101548.00;;;18.97;47.00
62544;BME280;48597;49.030;1.822;2022-11-27T00:23:31;101537.41;;;18.97;47.14
62544;BME280;48597;49.030;1.822;2022-11-27T00:25:56;101535.34;;;18.98;47.24
62544;BME280;48597;49.030;1.822;2022-11-27T00:28:22;101530.88;;;18.97;47.24
62544;BME280;48597;49.030;1.822;2022-11-27T00:30:47;101536.59;;;18.97;47.09
62544;BME280;48597;49.030;1.822;2022-11-27T00:33:12;101530.88;;;18.97;47.02
62544;BME280;48597;49.030;1.822;2022-11-27T00:35:38;101533.72;;;18.97;47.02
62544;BME280;48597;49.030;1.822;2022-11-27T00:38:04;101531.31;;;18.95;47.14
62544;BME280;48597;49.030;1.822;2022-11-27T00:40:29;101531.31;;;18.95;47.10
62544;BME280;48597;49.030;1.822;2022-11-27T00:42:55;101523.53;;;18.96;47.06
62544;BME280;48597;49.030;1.822;2022-11-27T00:45:20;101527.66;;;18.95;47.17
62544;BME280;48597;49.030;1.822;2022-11-27T00:47:46;101525.63;;;18.95;47.20
62544;BME280;48597;49.030;1.822;2022-11-27T00:50:11;101532.56;;;18.94;47.04
62544;BME280;48597;49.030;1.822;2022-11-27T00:52:37;101530.50;;;18.95;47.08
62544;BME280;48597;49.030;1.822;2022-11-27T00:55:02;101524.81;;;18.95;47.07
62544;BME280;48597;49.030;1.822;2022-11-27T00:57:28;101528.47;;;18.95;47.18
62544;BME280;48597;49.030;1.822;2022-11-27T00:59:53;101521.94;;;18.95;47.06
62544;BME280;48597;49.030;1.822;2022-11-27T01:02:19;101522.75;;;18.95;47.02
62544;BME280;48597;49.030;1.822;2022-11-27T01:04:45;101521.94;;;18.95;47.02
62544;BME280;48597;49.030;1.822;2022-11-27T01:07:11;101524.34;;;18.96;46.92
62544;BME280;48597;49.030;1.822;2022-11-27T01:09:36;101521.94;;;18.95;47.09
62544;BME280;48597;49.030;1.822;2022-11-27T01:12:02;101516.22;;;18.95;46.88
62544;BME280;48597;49.030;1.822;2022-11-27T01:14:28;101520.31;;;18.94;46.89
62544;BME280;48597;49.030;1.822;2022-11-27T01:16:53;101518.28;;;18.94;47.03
62544;BME280;48597;49.030;1.822;2022-11-27T01:19:19;101521.94;;;18.95;47.17
62544;BME280;48597;49.030;1.822;2022-11-27T01:21:45;101506.84;;;18.94;47.07
62544;BME280;48597;49.030;1.822;2022-11-27T01:24:13;101506.84;;;18.94;47.07
62544;BME280;48597;49.030;1.822;2022-11-27T01:26:39;101508.91;;;18.94;47.01
62544;BME280;48597;49.030;1.822;2022-11-27T01:29:04;101511.75;;;18.94;46.89
62544;BME280;48597;49.030;1.822;2022-11-27T01:31:32;101507.28;;;18.92;46.90
62544;BME280;48597;49.030;1.822;2022-11-27T01:34:00;101503.59;;;18.92;46.98
62544;BME280;48597;49.030;1.822;2022-11-27T01:36:26;101496.66;;;18.93;47.01
62544;BME280;48597;49.030;1.822;2022-11-27T01:38:52;101486.84;;;18.94;47.02
62544;BME280;48597;49.030;1.822;2022-11-27T01:41:20;101484.81;;;18.95;46.98
62544;BME280;48597;49.030;1.822;2022-11-27T01:51:43;101477.03;;;18.95;47.08
62544;BME280;48597;49.030;1.822;2022-11-27T01:54:10;101469.72;;;18.94;47.10
62544;BME280;48597;49.030;1.822;2022-11-27T01:56:37;101469.25;;;18.96;47.15
62544;BME280;48597;49.030;1.822;2022-11-27T01:59:04;101474.19;;;18.95;46.99
62544;BME280;48597;49.030;1.822;2022-11-27T02:01:30;101466.41;;;18.96;47.17
62544;BME280;48597;49.030;1.822;2022-11-27T02:03:58;101462.31;;;18.97;46.98
62544;BME280;48597;49.030;1.822;2022-11-27T02:06:24;101458.63;;;18.96;47.06
62544;BME280;48597;49.030;1.822;2022-11-27T02:08:50;101459.44;;;18.97;47.01
62544;BME280;48597;49.030;1.822;2022-11-27T02:11:50;101452.94;;;18.96;47.05
62544;BME280;48597;49.030;1.822;2022-11-27T02:14:21;101457.81;;;18.96;47.04
62544;BME280;48597;49.030;1.822;2022-11-27T02:16:59;101458.63;;;18.96;47.16
62544;BME280;48597;49.030;1.822;2022-11-27T02:19:42;101442.31;;;18.97;47.09
62544;BME280;48597;49.030;1.822;2022-11-27T02:22:45;101449.63;;;18.98;47.01
62544;BME280;48597;49.030;1.822;2022-11-27T02:30:24;101453.31;;;18.98;47.08
62544;BME280;48597;49.030;1.822;2022-11-27T02:32:58;101444.75;;;18.98;47.04
62544;BME280;48597;49.030;1.822;2022-11-27T02:38:23;101436.97;;;18.99;47.08
62544;BME280;48597;49.030;1.822;2022-11-27T02:40:56;101435.34;;;18.98;47.13
62544;BME280;48597;49.030;1.822;2022-11-27T02:45:58;101432.50;;;18.98;47.05
62544;BME280;48597;49.030;1.822;2022-11-27T02:48:35;101425.97;;;18.97;47.04
62544;BME280;48597;49.030;1.822;2022-11-27T02:51:03;101423.94;;;18.98;46.77
62544;BME280;48597;49.030;1.822;2022-11-27T02:53:33;101415.34;;;18.98;46.90
62544;BME280;48597;49.030;1.822;2022-11-27T02:56:04;101413.75;;;18.97;46.95
62544;BME280;48597;49.030;1.822;2022-11-27T02:58:34;101403.13;;;18.97;47.00
62544;BME280;48597;49.030;1.822;2022-11-27T03:01:02;101394.19;;;18.95;47.04
62544;BME280;48597;49.030;1.822;2022-11-27T03:03:33;101388.03;;;18.97;47.07
62544;BME280;48597;49.030;1.822;2022-11-27T03:06:01;101388.03;;;18.97;47.07
62544;BME280;48597;49.030;1.822;2022-11-27T03:08:37;101379.91;;;18.95;47.01
62544;BME280;48597;49.030;1.822;2022-11-27T03:11:10;101380.34;;;18.94;47.01
62544;BME280;48597;49.030;1.822;2022-11-27T03:13:39;101369.28;;;18.96;46.96
62544;BME280;48597;49.030;1.822;2022-11-27T03:21:40;101353.41;;;18.95;47.01
62544;BME280;48597;49.030;1.822;2022-11-27T03:24:07;101348.50;;;18.95;46.97
62544;BME280;48597;49.030;1.822;2022-11-27T03:26:33;101350.53;;;18.95;47.00
62544;BME280;48597;49.030;1.822;2022-11-27T03:28:59;101349.72;;;18.94;47.03
62544;BME280;48597;49.030;1.822;2022-11-27T03:31:26;101350.53;;;18.95;47.03
62544;BME280;48597;49.030;1.822;2022-11-27T03:33:53;101346.88;;;18.94;47.06
62544;BME280;48597;49.030;1.822;2022-11-27T03:36:20;101347.69;;;18.95;47.04
62544;BME280;48597;49.030;1.822;2022-11-27T03:38:47;101351.34;;;18.95;46.96
62544;BME280;48597;49.030;1.822;2022-11-27T03:46:51;101355.44;;;18.94;47.03
62544;BME280;48597;49.030;1.822;2022-11-27T03:57:42;101335.81;;;18.96;47.06
62544;BME280;48597;49.030;1.822;2022-11-27T04:00:12;101335.00;;;18.96;47.00
62544;BME280;48597;49.030;1.822;2022-11-27T04:02:47;101325.63;;;18.95;46.98
62544;BME280;48597;49.030;1.822;2022-11-27T04:05:14;101312.13;;;18.96;47.06
62544;BME280;48597;49.030;1.822;2022-11-27T04:07:40;101316.59;;;18.97;47.13
62544;BME280;48597;49.030;1.822;2022-11-27T04:10:06;101310.91;;;18.97;47.09
62544;BME280;48597;49.030;1.822;2022-11-27T04:12:32;101308.03;;;18.97;47.16
62544;BME280;48597;49.030;1.822;2022-11-27T04:14:57;101301.53;;;18.96;47.09
62544;BME280;48597;49.030;1.822;2022-11-27T04:17:22;101308.03;;;18.97;47.02
62544;BME280;48597;49.030;1.822;2022-11-27T04:19:48;101303.13;;;18.97;47.02
62544;BME280;48597;49.030;1.822;2022-11-27T04:22:13;101294.56;;;18.97;47.04
62544;BME280;48597;49.030;1.822;2022-11-27T04:24:39;101290.91;;;18.97;47.00
62544;BME280;48597;49.030;1.822;2022-11-27T04:27:04;101290.09;;;18.96;47.09
62544;BME280;48597;49.030;1.822;2022-11-27T04:29:29;101291.72;;;18.97;47.01
62544;BME280;48597;49.030;1.822;2022-11-27T04:31:55;101283.13;;;18.97;46.91
62544;BME280;48597;49.030;1.822;2022-11-27T04:34:20;101279.94;;;18.95;46.94
62544;BME280;48597;49.030;1.822;2022-11-27T04:36:45;101277.09;;;18.95;47.00
62544;BME280;48597;49.030;1.822;2022-11-27T04:39:11;101275.00;;;18.96;47.34
62544;BME280;48597;49.030;1.822;2022-11-27T04:41:37;101267.69;;;18.95;46.98
62544;BME280;48597;49.030;1.822;2022-11-27T04:44:03;101274.66;;;18.94;46.85
62544;BME280;48597;49.030;1.822;2022-11-27T04:46:28;101269.75;;;18.94;46.94
62544;BME280;48597;49.030;1.822;2022-11-27T04:48:54;101273.41;;;18.95;47.02
62544;BME280;48597;49.030;1.822;2022-11-27T04:51:19;101268.03;;;18.97;46.99
62544;BME280;48597;49.030;1.822;2022-11-27T04:53:45;101273.41;;;18.95;47.01
62544;BME280;48597;49.030;1.822;2022-11-27T04:56:10;101264.84;;;18.95;46.90
62544;BME280;48597;49.030;1.822;2022-11-27T04:58:35;101258.66;;;18.96;47.16
62544;BME280;48597;49.030;1.822;2022-11-27T05:01:01;101257.84;;;18.96;47.05
62544;BME280;48597;49.030;1.822;2022-11-27T05:03:26;101259.94;;;18.95;47.00
62544;BME280;48597;49.030;1.822;2022-11-27T05:05:55;101269.28;;;18.96;46.98
62544;BME280;48597;49.030;1.822;2022-11-27T05:08:22;101265.66;;;18.95;47.06
62544;BME280;48597;49.030;1.822;2022-11-27T05:10:58;101266.44;;;18.96;47.01
62544;BME280;48597;49.030;1.822;2022-11-27T05:13:24;101264.38;;;18.96;47.10
62544;BME280;48597;49.030;1.822;2022-11-27T05:15:49;101267.25;;;18.96;46.98
62544;BME280;48597;49.030;1.822;2022-11-27T05:18:14;101266.44;;;18.96;46.97
62544;BME280;48597;49.030;1.822;2022-11-27T05:20:40;101261.97;;;18.95;47.11
62544;BME280;48597;49.030;1.822;2022-11-27T05:23:05;101266.88;;;18.94;46.99
62544;BME280;48597;49.030;1.822;2022-11-27T05:25:30;101269.75;;;18.94;47.11
62544;BME280;48597;49.030;1.822;2022-11-27T05:27:56;101268.94;;;18.94;46.93
62544;BME280;48597;49.030;1.822;2022-11-27T05:30:21;101265.28;;;18.93;47.15
62544;BME280;48597;49.030;1.822;2022-11-27T05:32:46;101268.94;;;18.94;47.01
62544;BME280;48597;49.030;1.822;2022-11-27T05:35:12;101262.84;;;18.91;47.11
62544;BME280;48597;49.030;1.822;2022-11-27T05:37:37;101265.72;;;18.91;47.12
62544;BME280;48597;49.030;1.822;2022-11-27T05:40:03;101265.72;;;18.91;47.20
62544;BME280;48597;49.030;1.822;2022-11-27T05:42:28;101261.22;;;18.90;47.09
62544;BME280;48597;49.030;1.822;2022-11-27T05:44:53;101252.66;;;18.90;47.18
62544;BME280;48597;49.030;1.822;2022-11-27T05:47:19;101255.94;;;18.89;47.17
62544;BME280;48597;49.030;1.822;2022-11-27T05:49:44;101249.81;;;18.90;47.05
62544;BME280;48597;49.030;1.822;2022-11-27T05:52:09;101243.28;;;18.90;46.99
62544;BME280;48597;49.030;1.822;2022-11-27T05:54:35;101238.81;;;18.89;47.07
62544;BME280;48597;49.030;1.822;2022-11-27T05:57:00;101231.47;;;18.88;46.97
62544;BME280;48597;49.030;1.822;2022-11-27T05:59:25;101232.28;;;18.88;47.00
62544;BME280;48597;49.030;1.822;2022-11-27T06:01:51;101229.44;;;18.88;47.04
62544;BME280;48597;49.030;1.822;2022-11-27T06:04:16;101228.19;;;18.89;46.99
62544;BME280;48597;49.030;1.822;2022-11-27T06:06:42;101219.19;;;18.91;47.03
62544;BME280;48597;49.030;1.822;2022-11-27T06:09:07;101210.63;;;18.91;46.97
62544;BME280;48597;49.030;1.822;2022-11-27T06:11:33;101212.69;;;18.90;47.27
62544;BME280;48597;49.030;1.822;2022-11-27T06:13:59;101214.28;;;18.91;46.87
62544;BME280;48597;49.030;1.822;2022-11-27T06:16:24;101214.28;;;18.91;46.89
62544;BME280;48597;49.030;1.822;2022-11-27T06:18:54;101213.06;;;18.92;47.00
62544;BME280;48597;49.030;1.822;2022-11-27T06:21:22;101217.53;;;18.94;46.88
62544;BME280;48597;49.030;1.822;2022-11-27T06:23:47;101206.09;;;18.94;46.91
62544;BME280;48597;49.030;1.822;2022-11-27T06:26:17;101201.19;;;18.94;46.96
62544;BME280;48597;49.030;1.822;2022-11-27T06:28:43;101207.72;;;18.95;47.20
62544;BME280;48597;49.030;1.822;2022-11-27T06:31:12;101211.38;;;18.95;46.99
62544;BME280;48597;49.030;1.822;2022-11-27T06:33:38;101209.28;;;18.96;46.85
62544;BME280;48597;49.030;1.822;2022-11-27T06:36:04;101200.72;;;18.96;46.99
62544;BME280;48597;49.030;1.822;2022-11-27T06:38:31;101197.09;;;18.95;46.94
62544;BME280;48597;49.030;1.822;2022-11-27T06:41:07;101190.47;;;18.98;47.21
62544;BME280;48597;49.030;1.822;2022-11-27T06:43:33;101195.38;;;18.98;47.08
62544;BME280;48597;49.030;1.822;2022-11-27T06:46:00;101199.47;;;18.97;47.08
62544;BME280;48597;49.030;1.822;2022-11-27T06:48:25;101194.59;;;18.97;47.08
62544;BME280;48597;49.030;1.822;2022-11-27T06:50:50;101191.28;;;18.99;47.06
62544;BME280;48597;49.030;1.822;2022-11-27T06:53:16;101190.06;;;19.00;47.03
62544;BME280;48597;49.030;1.822;2022-11-27T06:55:41;101189.69;;;18.98;46.94
62544;BME280;48597;49.030;1.822;2022-11-27T06:58:06;101183.16;;;18.97;46.95
62544;BME280;48597;49.030;1.822;2022-11-27T07:00:32;101185.56;;;18.99;47.04
62544;BME280;48597;49.030;1.822;2022-11-27T07:02:57;101177.44;;;18.97;47.07
62544;BME280;48597;49.030;1.822;2022-11-27T07:05:23;101187.63;;;18.98;47.03
62544;BME280;48597;49.030;1.822;2022-11-27T07:07:48;101185.56;;;18.99;47.11
62544;BME280;48597;49.030;1.822;2022-11-27T07:10:14;101189.69;;;18.98;46.98
62544;BME280;48597;49.030;1.822;2022-11-27T07:12:39;101189.69;;;18.98;47.04
62544;BME280;48597;49.030;1.822;2022-11-27T07:15:05;101187.63;;;18.98;47.17
62544;BME280;48597;49.030;1.822;2022-11-27T07:17:31;101185.56;;;18.99;46.78
62544;BME280;48597;49.030;1.822;2022-11-27T07:19:56;101184.78;;;18.98;47.09
62544;BME280;48597;49.030;1.822;2022-11-27T07:22:22;101183.16;;;18.97;47.10
62544;BME280;48597;49.030;1.822;2022-11-27T07:24:47;101169.69;;;18.98;47.14
62544;BME280;48597;49.030;1.822;2022-11-27T07:27:12;101166.44;;;18.96;47.20
62544;BME280;48597;49.030;1.822;2022-11-27T07:29:38;101156.63;;;18.97;47.14
62544;BME280;48597;49.030;1.822;2022-11-27T07:32:04;101148.53;;;18.95;47.15
62544;BME280;48597;49.030;1.822;2022-11-27T07:34:29;101152.97;;;18.96;47.13
62544;BME280;48597;49.030;1.822;2022-11-27T07:36:54;101152.16;;;18.96;47.08
62544;BME280;48597;49.030;1.822;2022-11-27T07:39:20;101154.59;;;18.97;47.10
62544;BME280;48597;49.030;1.822;2022-11-27T07:41:45;101157.44;;;18.97;47.04
62544;BME280;48597;49.030;1.822;2022-11-27T07:44:10;101150.94;;;18.97;46.98
62544;BME280;48597;49.030;1.822;2022-11-27T07:46:36;101158.69;;;18.96;46.83
62544;BME280;48597;49.030;1.822;2022-11-27T07:49:01;101149.78;;;18.94;46.92
62544;BME280;48597;49.030;1.822;2022-11-27T07:51:28;101154.25;;;18.95;46.96
62544;BME280;48597;49.030;1.822;2022-11-27T07:53:53;101144.06;;;18.94;47.01
62544;BME280;48597;49.030;1.822;2022-11-27T07:56:19;101146.91;;;18.94;47.02
62544;BME280;48597;49.030;1.822;2022-11-27T07:58:44;101143.25;;;18.94;46.86
62544;BME280;48597;49.030;1.822;2022-11-27T08:01:15;101142.00;;;18.95;46.81
62544;BME280;48597;49.030;1.822;2022-11-27T08:03:41;101137.53;;;18.94;46.80
62544;BME280;48597;49.030;1.822;2022-11-27T08:08:39;101134.69;;;18.94;46.86
62544;BME280;48597;49.030;1.822;2022-11-27T08:11:04;101140.41;;;18.94;46.75
62544;BME280;48597;49.030;1.822;2022-11-27T08:13:30;101135.94;;;18.92;46.83
62544;BME280;48597;49.030;1.822;2022-11-27T08:15:58;101130.22;;;18.92;46.95
62544;BME280;48597;49.030;1.822;2022-11-27T08:18:23;101130.22;;;18.92;46.76
62544;BME280;48597;49.030;1.822;2022-11-27T08:20:49;101136.72;;;18.93;46.82
62544;BME280;48597;49.030;1.822;2022-11-27T08:23:14;101131.03;;;18.93;46.85
62544;BME280;48597;49.030;1.822;2022-11-27T08:25:40;101124.50;;;18.92;46.92
62544;BME280;48597;49.030;1.822;2022-11-27T08:28:05;101119.59;;;18.93;46.96
62544;BME280;48597;49.030;1.822;2022-11-27T08:30:30;101112.28;;;18.92;46.88
62544;BME280;48597;49.030;1.822;2022-11-27T08:32:56;101121.22;;;18.94;46.82
62544;BME280;48597;49.030;1.822;2022-11-27T08:35:21;101103.69;;;18.92;46.92
62544;BME280;48597;49.030;1.822;2022-11-27T08:37:46;101100.84;;;18.92;46.88
62544;BME280;48597;49.030;1.822;2022-11-27T08:40:12;101094.69;;;18.94;46.81
62544;BME280;48597;49.030;1.822;2022-11-27T08:42:38;101098.34;;;18.94;46.99
62544;BME280;48597;49.030;1.822;2022-11-27T08:45:03;101102.03;;;18.95;46.91
62544;BME280;48597;49.030;1.822;2022-11-27T08:47:28;101086.13;;;18.94;46.91
62544;BME280;48597;49.030;1.822;2022-11-27T08:49:55;101082.03;;;18.95;47.01
62544;BME280;48597;49.030;1.822;2022-11-27T08:52:21;101079.16;;;18.95;46.90
62544;BME280;48597;49.030;1.822;2022-11-27T08:54:46;101079.16;;;18.95;46.75
62544;BME280;48597;49.030;1.822;2022-11-27T08:57:12;101075.50;;;18.94;46.84
62544;BME280;48597;49.030;1.822;2022-11-27T08:59:37;101079.16;;;18.95;46.85
62544;BME280;48597;49.030;1.822;2022-11-27T09:02:02;101076.31;;;18.95;46.85
62544;BME280;48597;49.030;1.822;2022-11-27T09:04:28;101055.84;;;18.96;46.84
62544;BME280;48597;49.030;1.822;2022-11-27T09:06:53;101059.19;;;18.95;46.92
62544;BME280;48597;49.030;1.822;2022-11-27T09:09:18;101062.03;;;18.95;46.98
62544;BME280;48597;49.030;1.822;2022-11-27T09:11:44;101054.72;;;18.94;46.90
62544;BME280;48597;49.030;1.822;2022-11-27T09:14:10;101046.13;;;18.94;46.99
62544;BME280;48597;49.030;1.822;2022-11-27T09:16:35;101049.44;;;18.92;46.95
62544;BME280;48597;49.030;1.822;2022-11-27T09:19:01;101041.22;;;18.94;46.91
62544;BME280;48597;49.030;1.822;2022-11-27T09:21:28;101043.28;;;18.94;47.06
62544;BME280;48597;49.030;1.822;2022-11-27T09:23:56;101049.81;;;18.94;47.00
62544;BME280;48597;49.030;1.822;2022-11-27T09:26:21;101046.94;;;18.94;46.93
62544;BME280;48597;49.030;1.822;2022-11-27T09:28:48;101046.94;;;18.94;47.01
62544;BME280;48597;49.030;1.822;2022-11-27T09:31:14;101051.84;;;18.94;47.01
62544;BME280;48597;49.030;1.822;2022-11-27T09:33:41;101040.06;;;18.91;47.23
62544;BME280;48597;49.030;1.822;2022-11-27T09:36:14;101049.44;;;18.92;47.03
62544;BME280;48597;49.030;1.822;2022-11-27T09:38:40;101042.91;;;18.91;47.00
62544;BME280;48597;49.030;1.822;2022-11-27T09:41:38;101052.66;;;18.94;46.96
62544;BME280;48597;49.030;1.822;2022-11-27T09:44:43;101056.75;;;18.93;46.96
62544;BME280;48597;49.030;1.822;2022-11-27T09:49:42;101054.72;;;18.94;47.11
62544;BME280;48597;49.030;1.822;2022-11-27T09:52:37;101056.31;;;18.95;46.98
62544;BME280;48597;49.030;1.822;2022-11-27T09:55:18;101052.66;;;18.94;47.07
62544;BME280;48597;49.030;1.822;2022-11-27T09:57:49;101063.28;;;18.94;47.15
62544;BME280;48597;49.030;1.822;2022-11-27T10:00:19;101054.28;;;18.95;46.99
62544;BME280;48597;49.030;1.822;2022-11-27T10:02:45;101066.47;;;18.96;47.04
62544;BME280;48597;49.030;1.822;2022-11-27T10:05:45;101055.84;;;18.96;46.92
62544;BME280;48597;49.030;1.822;2022-11-27T10:08:15;101053.81;;;18.97;46.95
62544;BME280;48597;49.030;1.822;2022-11-27T10:11:05;101061.13;;;18.98;47.00
62544;BME280;48597;49.030;1.822;2022-11-27T10:16:48;101069.69;;;18.98;46.98
62544;BME280;48597;49.030;1.822;2022-11-27T10:21:58;101050.94;;;18.97;46.95
62544;BME280;48597;49.030;1.822;2022-11-27T10:27:10;101044.34;;;19.00;47.03
62544;BME280;48597;49.030;1.822;2022-11-27T10:29:44;101040.31;;;18.97;46.86
62544;BME280;48597;49.030;1.822;2022-11-27T10:32:15;101035.41;;;18.98;47.00
62544;BME280;48597;49.030;1.822;2022-11-27T10:37:17;101038.66;;;19.00;47.06
62544;BME280;48597;49.030;1.822;2022-11-27T10:39:51;101036.59;;;19.00;46.90
62544;BME280;48597;49.030;1.822;2022-11-27T10:42:44;101031.31;;;18.99;47.11
62544;BME280;48597;49.030;1.822;2022-11-27T10:45:21;101032.94;;;19.00;46.94
62544;BME280;48597;49.030;1.822;2022-11-27T10:47:49;101025.97;;;19.01;46.85
62544;BME280;48597;49.030;1.822;2022-11-27T10:50:16;101017.03;;;18.99;47.09
62544;BME280;48597;49.030;1.822;2022-11-27T10:53:04;101020.25;;;19.01;47.07
62544;BME280;48597;49.030;1.822;2022-11-27T10:59:02;101012.13;;;18.99;47.11
62544;BME280;48597;49.030;1.822;2022-11-27T11:01:21;101003.56;;;18.99;47.07
62544;BME280;48597;49.030;1.822;2022-11-27T11:03:47;100985.97;;;19.01;46.99
62544;BME280;48597;49.030;1.822;2022-11-27T11:06:18;100970.44;;;19.02;47.13
62544;BME280;48597;49.030;1.822;2022-11-27T11:08:44;100977.78;;;19.03;46.87
62544;BME280;48597;49.030;1.822;2022-11-27T11:11:09;100963.94;;;19.01;46.98
62544;BME280;48597;49.030;1.822;2022-11-27T11:13:45;100961.88;;;19.02;47.03
62544;BME280;48597;49.030;1.822;2022-11-27T11:18:48;100961.06;;;19.01;46.95
62544;BME280;48597;49.030;1.822;2022-11-27T11:23:42;100959.47;;;19.00;47.10
62544;BME280;48597;49.030;1.822;2022-11-27T11:28:43;100950.91;;;19.00;47.03
62544;BME280;48597;49.030;1.822;2022-11-27T11:31:15;100940.28;;;19.01;46.96
62544;BME280;48597;49.030;1.822;2022-11-27T11:33:51;100940.28;;;19.01;46.95
62544;BME280;48597;49.030;1.822;2022-11-27T11:36:20;100940.28;;;19.01;46.97
62544;BME280;48597;49.030;1.822;2022-11-27T11:38:46;100933.75;;;19.00;47.06
62544;BME280;48597;49.030;1.822;2022-11-27T11:41:12;100919.47;;;19.00;47.07
62544;BME280;48597;49.030;1.822;2022-11-27T11:43:52;100919.47;;;19.00;46.95
62544;BME280;48597;49.030;1.822;2022-11-27T11:46:19;100920.28;;;19.01;46.99
62544;BME280;48597;49.030;1.822;2022-11-27T11:49:22;100915.38;;;19.01;47.06
62544;BME280;48597;49.030;1.822;2022-11-27T11:52:14;100901.53;;;19.00;47.04
62544;BME280;48597;49.030;1.822;2022-11-27T12:00:29;100892.97;;;19.00;47.13
62544;BME280;48597;49.030;1.822;2022-11-27T12:11:15;100859.03;;;19.02;47.05
62544;BME280;48597;49.030;1.822;2022-11-27T12:21:51;100834.13;;;19.02;47.03
62544;BME280;48597;49.030;1.822;2022-11-27T12:27:31;100822.72;;;19.02;47.05
62544;BME280;48597;49.030;1.822;2022-11-27T12:30:18;100824.75;;;19.02;46.91
62544;BME280;48597;49.030;1.822;2022-11-27T12:43:46;100788.44;;;19.02;47.02
62544;BME280;48597;49.030;1.822;2022-11-27T12:46:17;100781.47;;;19.03;47.07
62544;BME280;48597;49.030;1.822;2022-11-27T12:49:12;100783.06;;;19.04;47.01
62544;BME280;48597;49.030;1.822;2022-11-27T12:54:49;100779.41;;;19.04;47.05
62544;BME280;48597;49.030;1.822;2022-11-27T12:57:21;100776.56;;;19.04;47.13
62544;BME280;48597;49.030;1.822;2022-11-27T12:59:53;100775.75;;;19.03;47.12
62544;BME280;48597;49.030;1.822;2022-11-27T13:02:46;100765.56;;;19.02;47.06
62544;BME280;48597;49.030;1.822;2022-11-27T13:05:20;100773.34;;;19.02;47.11
62544;BME280;48597;49.030;1.822;2022-11-27T13:07:55;100773.34;;;19.02;47.06
62544;BME280;48597;49.030;1.822;2022-11-27T13:10:42;100761.91;;;19.02;47.14
62544;BME280;48597;49.030;1.822;2022-11-27T13:16:04;100745.13;;;19.04;47.15
62544;BME280;48597;49.030;1.822;2022-11-27T13:18:48;100745.13;;;19.04;47.07
62544;BME280;48597;49.030;1.822;2022-11-27T13:21:19;100737.81;;;19.03;47.10
62544;BME280;48597;49.030;1.822;2022-11-27T13:23:48;100726.75;;;19.05;47.17
62544;BME280;48597;49.030;1.822;2022-11-27T13:26:28;100730.84;;;19.04;47.11
62544;BME280;48597;49.030;1.822;2022-11-27T13:28:57;100717.38;;;19.04;47.01
62544;BME280;48597;49.030;1.822;2022-11-27T13:31:30;100717.38;;;19.04;47.07
62544;BME280;48597;49.030;1.822;2022-11-27T13:34:00;100719.44;;;19.04;47.10
62544;BME280;48597;49.030;1.822;2022-11-27T13:36:40;100714.53;;;19.04;47.07
62544;BME280;48597;49.030;1.822;2022-11-27T13:39:21;100706.75;;;19.05;46.94
62544;BME280;48597;49.030;1.822;2022-11-27T13:41:48;100708.81;;;19.04;47.01
62544;BME280;48597;49.030;1.822;2022-11-27T13:44:27;100699.44;;;19.04;47.13
62544;BME280;48597;49.030;1.822;2022-11-27T13:46:58;100706.75;;;19.05;46.99
62544;BME280;48597;49.030;1.822;2022-11-27T13:49:30;100689.63;;;19.05;47.15
62544;BME280;48597;49.030;1.822;2022-11-27T13:52:05;100685.94;;;19.04;47.02
62544;BME280;48597;49.030;1.822;2022-11-27T13:54:31;100674.97;;;19.03;47.14
62544;BME280;48597;49.030;1.822;2022-11-27T13:56:56;100680.69;;;19.03;47.14
62544;BME280;48597;49.030;1.822;2022-11-27T13:59:23;100682.75;;;19.02;46.96
62544;BME280;48597;49.030;1.822;2022-11-27T14:02:04;100685.94;;;19.04;47.07
62544;BME280;48597;49.030;1.822;2022-11-27T14:04:31;100676.22;;;19.02;47.14
62544;BME280;48597;49.030;1.822;2022-11-27T14:07:06;100676.59;;;19.04;47.25
62544;BME280;48597;49.030;1.822;2022-11-27T14:09:37;100674.97;;;19.03;47.17
62544;BME280;48597;49.030;1.822;2022-11-27T14:12:17;100674.16;;;19.02;47.18
62544;BME280;48597;49.030;1.822;2022-11-27T14:15:40;100678.63;;;19.03;47.05
62544;BME280;48597;49.030;1.822;2022-11-27T14:17:42;100674.97;;;19.03;47.10
62544;BME280;48597;49.030;1.822;2022-11-27T14:22:42;100678.63;;;19.03;47.18
62544;BME280;48597;49.030;1.822;2022-11-27T14:25:17;100667.66;;;19.02;47.15
62544;BME280;48597;49.030;1.822;2022-11-27T14:27:43;100664.78;;;19.02;47.26
62544;BME280;48597;49.030;1.822;2022-11-27T14:30:33;100671.31;;;19.02;47.11
62544;BME280;48597;49.030;1.822;2022-11-27T14:33:01;100669.25;;;19.03;47.08
62544;BME280;48597;49.030;1.822;2022-11-27T14:35:26;100661.94;;;19.02;47.27
62544;BME280;48597;49.030;1.822;2022-11-27T14:37:52;100659.88;;;19.02;47.27
62544;BME280;48597;49.030;1.822;2022-11-27T14:40:24;100661.13;;;19.01;47.30
62544;BME280;48597;49.030;1.822;2022-11-27T14:42:50;100666.41;;;19.03;47.10
62544;BME280;48597;49.030;1.822;2022-11-27T14:45:18;100656.22;;;19.02;47.35
62544;BME280;48597;49.030;1.822;2022-11-27T14:47:48;100659.09;;;19.02;47.31
62544;BME280;48597;49.030;1.822;2022-11-27T14:50:14;100646.84;;;19.01;47.28